Portada
METAR-TAF:

METAR-TAF

Aeropuertos :

Columbia, Misuri, Estados Unidos

latitud: 38-49-01N, longitud: 092-13-06W, altitud: 271 m

Observación

El informe se hizo hace 40 minutos, a las 01:54 UTC
Viento 4 kt del este
Temperatura 23°C
Humedad 53%
Presión 1022 hPa
Visibilidad: 16.1 km
Cielo despejado

METAR: KCOU 010154Z 10004KT 10SM CLR 23/13 A3019 RMK AO2 SLP217 T02280128

Hora: 21:34 (02:34 UTC)

Pronóstico

El informe se hizo hace 3 horas y 14 minutos, a las 23:20 UTC
Pronóstico válido del 01 a las 00 UTC al 01 a las 24 UTC
Viento 6 kt del este
Visibilidad: 10 km
Cielo despejado
A partir de las 01 a las 1300 UTC
Viento 10 kt del sur-sureste
Visibilidad: 10 km
Nubes dispersas a una altura de 25000 ft

TAF: KCOU 312320Z 0100/0124 08006KT P6SM SKC FM011300 16010KT P6SM SCT250

Observaciones y pronósticos meteorológicos de más de 4000 aeropuertos (mensajes METAR y TAF).

Los puntos amarillos y rojos representan las estaciones disponibles.

Ponga el ratón en el punto deseado para ver el nombre de la estación.

Haga clic para ver las observaciones y los pronósticos meteorológicos.

Para cambiar el mapa : haga clic en los botones verdes con una cruz de color negro para hacer un zoom, en el botón verde con un guión para alejar o en las flechas verdes para mapas adyacentes.


METAR-TAF: